LPMA Airport Information

Runway Information
Runway 05 Length 9110 ft width 148 ft
Elevation 147 ft Threshold 480 ft Heading 45
Runway 23 Length 9110 ft Width 148 ft
Elevation 192 ft Threshold 490 ft Heading 225
Airport Frequencies
Type APP Name APP Frequency 119.2 MHZ
Type TWR Name TWR Frequency 118.35 MHZ
Airport Navaids
Type VOR-DME Name Madeira Frequency 112200 KHZ
Type NDB Name Madeira Frequency 318 KHZ
Airport Weather Information & NOTAM
ADDS - METARS form results

(0809 UTC 22 May 2018)
 
METAR text: LPMA 220800Z 34016G27KT 300V020 9999 SCT015 SCT030 17/10 Q1015
Conditions at: LPMA (FUNCHAL/MADEIRA , PT) observed 0800 UTC 22 May 2018
Temperature: 17.0°C (63°F)
Dewpoint: 10.0°C (50°F) [RH = 63%]
Pressure (altimeter): 29.97 inches Hg (1015.0 mb)
Winds: from the NNW (340 degrees) at 18 MPH (16 knots; 8.3 m/s)
gusting to 31 MPH (27 knots; 14.0 m/s)
Visibility: 6 or more miles (10+ km)
Ceiling: at least 12,000 feet AGL
Clouds: scattered clouds at 1500 feet AGL
scattered clouds at 3000 feet AGL
Weather: no significant weather observed at this time

METAR text: LPMA 220730Z 34017G28KT 310V010 9999 SCT015 SCT030 17/10 Q1015
Conditions at: LPMA (FUNCHAL/MADEIRA , PT) observed 0730 UTC 22 May 2018
Temperature: 17.0°C (63°F)
Dewpoint: 10.0°C (50°F) [RH = 63%]
Pressure (altimeter): 29.97 inches Hg (1015.0 mb)
Winds: from the NNW (340 degrees) at 20 MPH (17 knots; 8.8 m/s)
gusting to 32 MPH (28 knots; 14.6 m/s)
Visibility: 6 or more miles (10+ km)
Ceiling: at least 12,000 feet AGL
Clouds: scattered clouds at 1500 feet AGL
scattered clouds at 3000 feet AGL
Weather: no significant weather observed at this time